createdAt,value
2018-06-29T00:02:04.343Z,25.87
2018-06-29T00:04:32.853Z,27.47
2018-06-29T00:07:01.388Z,26.87
2018-06-29T00:09:29.604Z,26.57
2018-06-29T00:11:58.133Z,26.87
2018-06-29T00:14:26.636Z,27.20
2018-06-29T00:16:55.146Z,25.83
2018-06-29T00:19:23.650Z,27.13
2018-06-29T00:21:52.161Z,28.20
2018-06-29T00:24:20.667Z,26.27
2018-06-29T00:26:49.201Z,28.20
2018-06-29T00:29:17.717Z,26.67
2018-06-29T00:31:45.893Z,27.33
2018-06-29T00:34:14.108Z,26.50
2018-06-29T00:36:42.621Z,25.47
2018-06-29T00:39:11.140Z,26.40
2018-06-29T00:41:39.693Z,25.40
2018-06-29T00:44:08.216Z,25.90
2018-06-29T00:46:36.729Z,26.30
2018-06-29T00:49:05.389Z,28.17
2018-06-29T00:51:33.928Z,25.77
2018-06-29T00:54:02.447Z,24.43
2018-06-29T00:56:30.974Z,25.70
2018-06-29T00:58:59.481Z,26.17
2018-06-29T01:01:28.041Z,25.87
2018-06-29T01:03:56.573Z,25.93
2018-06-29T01:06:24.757Z,27.13
2018-06-29T01:08:53.266Z,25.90
2018-06-29T01:11:21.777Z,26.40
2018-06-29T01:13:50.297Z,25.87
2018-06-29T01:16:18.845Z,26.27
2018-06-29T01:18:47.382Z,26.17
2018-06-29T01:21:15.954Z,25.83
2018-06-29T01:23:44.465Z,26.23
2018-06-29T01:26:13.011Z,23.83
2018-06-29T01:28:41.569Z,24.50
2018-06-29T01:31:10.089Z,24.27
2018-06-29T01:33:38.605Z,23.70
2018-06-29T01:36:07.125Z,23.20
2018-06-29T01:38:35.634Z,23.23
2018-06-29T01:41:04.165Z,21.80
2018-06-29T01:43:32.684Z,21.40
2018-06-29T01:46:01.226Z,22.30
2018-06-29T01:48:29.765Z,22.03
2018-06-29T01:50:58.290Z,21.33
2018-06-29T01:53:26.825Z,20.07
2018-06-29T01:55:55.381Z,21.83
2018-06-29T01:58:23.578Z,19.63
2018-06-29T02:00:52.082Z,20.60
2018-06-29T02:03:20.593Z,20.20
2018-06-29T02:05:49.157Z,22.30
2018-06-29T02:08:17.693Z,21.50
2018-06-29T02:10:46.233Z,21.17
2018-06-29T02:13:14.749Z,21.67
2018-06-29T02:15:42.942Z,21.13
2018-06-29T02:18:11.453Z,21.53
2018-06-29T02:20:40.001Z,22.00
2018-06-29T02:23:08.550Z,71.93
2018-06-29T02:25:37.175Z,75.50
2018-06-29T02:28:06.213Z,70.37
2018-06-29T02:30:34.772Z,65.73
2018-06-29T02:33:03.257Z,72.27
2018-06-29T02:35:31.818Z,77.33
2018-06-29T02:38:00.337Z,86.20
2018-06-29T02:40:28.845Z,96.37
2018-06-29T02:42:57.371Z,87.90
2018-06-29T02:45:25.903Z,19.73
2018-06-29T02:47:54.421Z,20.70
2018-06-29T02:50:22.943Z,20.87
2018-06-29T02:52:51.481Z,20.50
2018-06-29T02:55:20.008Z,22.13
2018-06-29T02:57:48.513Z,19.93
2018-06-29T03:00:17.042Z,19.87
2018-06-29T03:02:45.589Z,21.73
2018-06-29T03:05:14.113Z,20.40
2018-06-29T03:07:42.621Z,21.07
2018-06-29T03:10:11.357Z,20.83
2018-06-29T03:12:39.540Z,20.20
2018-06-29T03:15:08.234Z,21.60
2018-06-29T03:17:36.778Z,19.43
2018-06-29T03:20:05.342Z,21.37
2018-06-29T03:22:33.862Z,21.50
2018-06-29T03:25:02.660Z,22.50
2018-06-29T03:27:31.205Z,21.10
2018-06-29T03:29:59.730Z,21.73
2018-06-29T03:32:28.265Z,22.70
2018-06-29T03:34:56.777Z,24.17
2018-06-29T03:37:25.322Z,24.13
2018-06-29T03:39:53.829Z,22.33
2018-06-29T03:42:22.365Z,23.70
2018-06-29T03:44:50.897Z,23.60
2018-06-29T03:47:19.409Z,24.00
2018-06-29T03:49:47.592Z,24.03
2018-06-29T03:52:16.126Z,21.37
2018-06-29T03:54:44.645Z,21.97
2018-06-29T03:57:13.166Z,59.43
2018-06-29T03:59:41.681Z,94.17
2018-06-29T04:02:10.201Z,70.43
2018-06-29T04:04:38.741Z,41.53
2018-06-29T04:07:07.289Z,49.13
2018-06-29T04:09:35.809Z,22.30
2018-06-29T04:12:04.341Z,22.90
2018-06-29T04:14:32.856Z,22.20
2018-06-29T04:17:01.389Z,21.60
2018-06-29T04:19:29.902Z,21.67
2018-06-29T04:21:58.421Z,23.10
2018-06-29T04:24:27.001Z,24.73
2018-06-29T04:26:55.525Z,22.83
2018-06-29T04:29:24.043Z,22.80
2018-06-29T04:31:52.605Z,25.20
2018-06-29T04:34:21.106Z,20.03
2018-06-29T04:36:49.626Z,21.20
2018-06-29T04:39:18.169Z,21.33
2018-06-29T04:41:46.696Z,24.43
2018-06-29T04:44:14.892Z,27.07
2018-06-29T04:46:43.506Z,21.13
2018-06-29T04:49:12.086Z,21.77
2018-06-29T04:51:40.630Z,22.33
2018-06-29T04:54:09.138Z,23.07
2018-06-29T04:56:37.636Z,22.57
2018-06-29T04:59:06.161Z,21.90
2018-06-29T05:01:34.698Z,23.73
2018-06-29T05:04:03.200Z,26.97
2018-06-29T05:06:31.717Z,21.63
2018-06-29T05:08:59.880Z,23.00
2018-06-29T05:11:28.417Z,22.10
2018-06-29T05:13:56.945Z,21.80
2018-06-29T05:16:26.467Z,21.57
2018-06-29T05:18:54.648Z,21.20
2018-06-29T05:21:23.176Z,20.77
2018-06-29T05:23:51.680Z,21.13
2018-06-29T05:26:20.205Z,21.43
2018-06-29T05:28:48.715Z,20.80
2018-06-29T05:31:17.218Z,19.83
2018-06-29T05:33:45.761Z,26.20
2018-06-29T05:36:14.286Z,20.10
2018-06-29T05:38:42.826Z,17.90
2018-06-29T05:41:11.351Z,19.77
2018-06-29T05:43:40.173Z,42.57
2018-06-29T05:46:08.745Z,46.23
2018-06-29T05:48:37.541Z,17.67
2018-06-29T05:51:06.145Z,19.13
2018-06-29T05:53:39.085Z,17.57
2018-06-29T05:56:13.778Z,18.30
2018-06-29T05:58:48.804Z,18.77
2018-06-29T06:01:17.708Z,17.87
2018-06-29T06:03:46.255Z,18.93
2018-06-29T06:06:14.789Z,19.93
2018-06-29T06:08:43.386Z,19.10
2018-06-29T06:11:11.897Z,43.73
2018-06-29T06:13:40.398Z,81.63
2018-06-29T06:16:08.997Z,77.87
2018-06-29T06:18:37.461Z,91.77
2018-06-29T06:21:05.996Z,73.97
2018-06-29T06:23:34.562Z,48.13
2018-06-29T06:26:03.902Z,16.57
2018-06-29T06:28:32.841Z,16.57
2018-06-29T06:31:02.379Z,15.93
2018-06-29T06:33:30.916Z,16.70
2018-06-29T06:35:59.618Z,15.70
2018-06-29T06:38:28.165Z,16.13
2018-06-29T06:40:57.812Z,16.60
2018-06-29T06:43:27.412Z,16.47
2018-06-29T06:45:57.009Z,16.20
2018-06-29T06:48:26.753Z,16.43
2018-06-29T06:50:56.427Z,16.10
2018-06-29T06:53:26.107Z,15.67
2018-06-29T06:55:55.648Z,16.47
2018-06-29T06:58:25.331Z,15.73
2018-06-29T07:00:54.782Z,16.27
2018-06-29T07:03:24.713Z,15.43
2018-06-29T07:05:54.445Z,15.60
2018-06-29T07:08:23.990Z,15.67
2018-06-29T07:10:53.557Z,15.27
2018-06-29T07:13:23.151Z,15.17
2018-06-29T07:15:52.111Z,14.20
2018-06-29T07:18:21.940Z,14.40
2018-06-29T07:20:51.612Z,14.23
2018-06-29T07:23:21.251Z,12.80
2018-06-29T07:25:50.801Z,13.50
2018-06-29T07:28:20.586Z,13.03
2018-06-29T07:30:50.204Z,13.67
2018-06-29T07:33:19.816Z,13.27
2018-06-29T07:35:49.309Z,13.67
2018-06-29T07:38:19.142Z,13.30
2018-06-29T07:40:48.778Z,13.93
2018-06-29T07:43:18.487Z,13.63
2018-06-29T07:45:47.971Z,13.83
2018-06-29T07:48:17.485Z,11.53
2018-06-29T07:50:47.031Z,13.27
2018-06-29T07:53:16.672Z,13.90
2018-06-29T07:55:46.217Z,13.73
2018-06-29T07:58:15.461Z,13.23
2018-06-29T08:00:45.050Z,14.00
2018-06-29T08:03:14.832Z,13.40
2018-06-29T08:05:44.569Z,13.80
2018-06-29T08:08:14.216Z,13.03
2018-06-29T08:10:43.788Z,13.50
2018-06-29T08:13:13.751Z,11.93
2018-06-29T08:15:43.417Z,13.80
2018-06-29T08:18:13.055Z,13.20
2018-06-29T08:20:42.826Z,13.53
2018-06-29T08:23:12.547Z,13.10
2018-06-29T08:25:42.244Z,13.47
2018-06-29T08:28:11.969Z,12.50
2018-06-29T08:30:41.673Z,14.47
2018-06-29T08:33:11.342Z,13.50
2018-06-29T08:35:40.879Z,14.40
2018-06-29T08:38:10.587Z,13.87
2018-06-29T08:40:40.191Z,14.57
2018-06-29T08:43:09.702Z,15.60
2018-06-29T08:45:39.167Z,16.10
2018-06-29T08:48:09.139Z,16.40
2018-06-29T08:50:39.075Z,16.37
2018-06-29T08:53:08.960Z,16.37
2018-06-29T08:55:38.580Z,100.13
2018-06-29T08:58:08.139Z,91.23
2018-06-29T09:00:37.680Z,89.30
2018-06-29T09:03:07.295Z,79.20
2018-06-29T09:05:36.943Z,85.90
2018-06-29T09:08:06.921Z,73.57
2018-06-29T09:10:36.472Z,17.10
2018-06-29T09:13:06.012Z,16.40
2018-06-29T09:15:40.020Z,18.17
2018-06-29T09:18:17.822Z,17.03
2018-06-29T09:20:47.422Z,16.40
2018-06-29T09:23:17.156Z,18.40
2018-06-29T09:25:46.629Z,17.63
2018-06-29T09:28:16.104Z,17.80
2018-06-29T09:30:45.571Z,18.13
2018-06-29T09:33:14.914Z,16.80
2018-06-29T09:35:44.418Z,17.57
2018-06-29T09:38:14.085Z,18.07
2018-06-29T09:40:43.895Z,17.97
2018-06-29T09:43:13.598Z,16.80
2018-06-29T09:45:43.359Z,54.87
2018-06-29T09:48:13.045Z,29.83
2018-06-29T09:50:42.424Z,17.67
2018-06-29T09:53:12.418Z,17.20
2018-06-29T09:55:42.049Z,17.37
2018-06-29T09:58:11.727Z,17.63
2018-06-29T10:00:41.741Z,17.20
2018-06-29T10:03:11.498Z,17.80
2018-06-29T10:05:41.011Z,17.10
2018-06-29T10:08:10.492Z,16.30
2018-06-29T10:10:40.031Z,18.23
2018-06-29T10:13:09.711Z,17.20
2018-06-29T10:15:39.718Z,17.33
2018-06-29T10:18:09.331Z,19.73
2018-06-29T10:20:38.936Z,18.00
2018-06-29T10:23:08.529Z,18.90
2018-06-29T10:25:38.315Z,17.77
2018-06-29T10:28:07.990Z,18.53
2018-06-29T10:30:37.511Z,17.40
2018-06-29T10:33:06.989Z,17.40
2018-06-29T10:35:36.584Z,19.33
2018-06-29T10:38:06.167Z,18.00
2018-06-29T10:40:35.973Z,16.90
2018-06-29T10:43:05.678Z,17.70
2018-06-29T10:45:34.724Z,16.17
2018-06-29T10:48:04.489Z,17.57
2018-06-29T10:50:34.349Z,15.70
2018-06-29T10:53:03.606Z,17.07
2018-06-29T10:55:33.444Z,18.73
2018-06-29T10:58:03.233Z,17.10
2018-06-29T11:00:32.836Z,17.17
2018-06-29T11:03:02.465Z,17.07
2018-06-29T11:05:31.986Z,17.93
2018-06-29T11:08:02.302Z,17.87
2018-06-29T11:10:31.883Z,17.63
2018-06-29T11:13:01.600Z,18.00
2018-06-29T11:15:31.127Z,17.00
2018-06-29T11:18:01.465Z,18.00
2018-06-29T11:20:30.922Z,16.63
2018-06-29T11:23:00.536Z,21.67
2018-06-29T11:25:30.166Z,85.17
2018-06-29T11:27:59.649Z,87.30
2018-06-29T11:30:29.401Z,97.40
2018-06-29T11:32:58.839Z,81.13
2018-06-29T11:35:28.412Z,88.83
2018-06-29T11:37:58.183Z,17.60
2018-06-29T11:40:28.319Z,125.70
2018-06-29T11:42:57.966Z,17.33
2018-06-29T11:45:27.635Z,17.10
2018-06-29T11:47:57.119Z,16.90
2018-06-29T11:50:26.724Z,15.63
2018-06-29T11:52:56.495Z,15.10
2018-06-29T11:55:26.225Z,16.27
2018-06-29T11:57:55.778Z,15.07
2018-06-29T12:00:25.691Z,15.00
2018-06-29T12:02:55.208Z,14.43
2018-06-29T12:05:24.972Z,15.23
2018-06-29T12:07:54.812Z,14.70
2018-06-29T12:10:24.345Z,16.27
2018-06-29T12:12:53.980Z,15.50
2018-06-29T12:15:23.477Z,15.07
2018-06-29T12:17:53.482Z,14.70
2018-06-29T12:20:23.067Z,16.50
2018-06-29T12:22:52.524Z,15.13
2018-06-29T12:25:21.076Z,15.93
2018-06-29T12:27:49.593Z,89.20
2018-06-29T12:30:18.131Z,104.50
2018-06-29T12:32:46.685Z,120.70
2018-06-29T12:35:15.189Z,15.80
2018-06-29T12:37:43.722Z,15.20
2018-06-29T12:40:12.271Z,15.73
2018-06-29T12:42:40.865Z,17.30
2018-06-29T12:45:09.410Z,18.90
2018-06-29T12:47:37.922Z,17.23
2018-06-29T12:50:06.696Z,18.03
2018-06-29T12:52:35.201Z,18.10
2018-06-29T12:55:05.336Z,17.67
2018-06-29T12:57:33.837Z,18.33
2018-06-29T13:00:02.384Z,17.23
2018-06-29T13:02:31.963Z,16.03
2018-06-29T13:05:01.474Z,17.80
2018-06-29T13:07:31.094Z,18.50
2018-06-29T13:10:00.847Z,17.43
2018-06-29T13:12:30.311Z,18.20
2018-06-29T13:15:00.028Z,16.80
2018-06-29T13:17:29.486Z,17.60
2018-06-29T13:19:59.290Z,18.03
2018-06-29T13:22:29.018Z,16.90
2018-06-29T13:24:58.573Z,17.13
2018-06-29T13:27:28.035Z,16.30
2018-06-29T13:29:57.622Z,16.97
2018-06-29T13:32:27.284Z,17.47
2018-06-29T13:34:57.251Z,15.00
2018-06-29T13:37:26.714Z,16.23
2018-06-29T13:39:55.254Z,15.23
2018-06-29T13:42:23.777Z,16.43
2018-06-29T13:44:52.273Z,15.50
2018-06-29T13:47:20.822Z,15.97
2018-06-29T13:49:49.349Z,16.50
2018-06-29T13:52:17.905Z,15.23
2018-06-29T13:54:46.480Z,16.00
2018-06-29T13:57:15.133Z,14.40
2018-06-29T13:59:43.658Z,16.83
2018-06-29T14:02:12.165Z,15.80
2018-06-29T14:04:40.689Z,15.70
2018-06-29T14:07:09.221Z,14.70
2018-06-29T14:09:37.766Z,13.50
2018-06-29T14:12:06.286Z,15.20
2018-06-29T14:14:34.813Z,14.37
2018-06-29T14:17:03.384Z,14.63
2018-06-29T14:19:31.909Z,15.00
2018-06-29T14:22:00.421Z,14.37
2018-06-29T14:24:28.945Z,61.80
2018-06-29T14:26:57.454Z,14.33
2018-06-29T14:29:25.981Z,16.53
2018-06-29T14:31:54.493Z,14.57
2018-06-29T14:34:22.993Z,14.23
2018-06-29T14:36:51.497Z,13.57
2018-06-29T14:39:20.001Z,105.33
2018-06-29T14:41:48.526Z,102.53
2018-06-29T14:44:17.061Z,101.93
2018-06-29T14:46:45.593Z,14.13
2018-06-29T14:49:14.165Z,13.57
2018-06-29T14:51:42.685Z,15.20
2018-06-29T14:54:11.182Z,13.60
2018-06-29T14:56:39.706Z,15.60
2018-06-29T14:59:08.221Z,14.93
2018-06-29T15:01:36.726Z,14.60
2018-06-29T15:04:05.313Z,15.53
2018-06-29T15:06:33.820Z,16.33
2018-06-29T15:09:02.411Z,14.90
2018-06-29T15:11:30.921Z,15.30
2018-06-29T15:13:59.493Z,14.87
2018-06-29T15:16:28.014Z,14.50
2018-06-29T15:18:56.517Z,14.17
2018-06-29T15:21:25.027Z,13.73
2018-06-29T15:23:53.552Z,14.07
2018-06-29T15:26:22.058Z,14.50
2018-06-29T15:28:50.569Z,13.67
2018-06-29T15:31:19.192Z,13.30
2018-06-29T15:33:47.669Z,14.70
2018-06-29T15:36:16.181Z,14.03
2018-06-29T15:38:44.737Z,14.67
2018-06-29T15:41:13.281Z,16.37
2018-06-29T15:43:41.796Z,14.53
2018-06-29T15:46:10.321Z,14.70
2018-06-29T15:48:38.852Z,14.60
2018-06-29T15:51:07.449Z,16.23
2018-06-29T15:53:35.972Z,15.30
2018-06-29T15:56:04.820Z,14.20
2018-06-29T15:58:33.346Z,13.57
2018-06-29T16:01:01.979Z,15.50
2018-06-29T16:03:30.496Z,14.47
2018-06-29T16:05:59.269Z,15.27
2018-06-29T16:08:27.805Z,16.80
2018-06-29T16:10:56.353Z,87.67
2018-06-29T16:13:24.870Z,102.70
2018-06-29T16:15:53.377Z,87.00
2018-06-29T16:18:21.914Z,15.00
2018-06-29T16:20:50.424Z,15.10
2018-06-29T16:23:18.965Z,15.80
2018-06-29T16:25:47.477Z,52.57
2018-06-29T16:28:16.001Z,102.20
2018-06-29T16:30:44.513Z,15.27
2018-06-29T16:33:13.037Z,16.40
2018-06-29T16:35:42.426Z,14.90
2018-06-29T16:38:10.939Z,16.07
2018-06-29T16:40:39.712Z,15.57
2018-06-29T16:43:08.211Z,14.00
2018-06-29T16:45:36.814Z,13.03
2018-06-29T16:48:05.965Z,15.10
2018-06-29T16:50:34.160Z,14.77
2018-06-29T16:53:02.701Z,14.90
2018-06-29T16:55:31.216Z,15.00
2018-06-29T16:57:59.721Z,14.90
2018-06-29T17:00:28.248Z,16.10
2018-06-29T17:02:56.781Z,13.47
2018-06-29T17:05:25.357Z,15.00
2018-06-29T17:07:53.870Z,14.60
2018-06-29T17:10:22.373Z,13.90
2018-06-29T17:12:50.877Z,15.57
2018-06-29T17:15:19.402Z,15.57
2018-06-29T17:17:47.921Z,16.30
2018-06-29T17:20:16.444Z,14.97
2018-06-29T17:22:44.617Z,15.00
2018-06-29T17:25:12.812Z,15.57
2018-06-29T17:27:41.362Z,15.07
2018-06-29T17:30:09.893Z,12.60
2018-06-29T17:32:38.397Z,16.07
2018-06-29T17:35:06.965Z,14.83
2018-06-29T17:37:35.477Z,14.60
2018-06-29T17:40:04.103Z,13.73
2018-06-29T17:42:32.633Z,109.53
2018-06-29T17:45:01.166Z,117.40
2018-06-29T17:47:30.078Z,84.77
2018-06-29T17:49:58.602Z,118.60
2018-06-29T17:52:27.117Z,115.13
2018-06-29T17:54:55.656Z,15.30
2018-06-29T17:57:24.197Z,15.30
2018-06-29T17:59:52.747Z,15.40
2018-06-29T18:02:21.246Z,14.13
2018-06-29T18:04:49.757Z,14.57
2018-06-29T18:07:18.297Z,17.33
2018-06-29T18:09:46.830Z,14.60
2018-06-29T18:12:15.425Z,16.40
2018-06-29T18:14:43.940Z,15.57
2018-06-29T18:17:12.464Z,15.30
2018-06-29T18:19:41.314Z,17.27
2018-06-29T18:22:09.854Z,15.23
2018-06-29T18:24:38.626Z,17.10
2018-06-29T18:27:07.366Z,15.83
2018-06-29T18:29:36.178Z,16.10
2018-06-29T18:32:04.803Z,15.80
2018-06-29T18:34:33.563Z,16.20
2018-06-29T18:37:02.310Z,14.93
2018-06-29T18:39:30.978Z,15.73
2018-06-29T18:41:59.704Z,16.47
2018-06-29T18:44:28.295Z,14.80
2018-06-29T18:46:56.928Z,13.80
2018-06-29T18:49:25.579Z,15.80
2018-06-29T18:51:54.238Z,17.10
2018-06-29T18:54:22.940Z,16.43
2018-06-29T18:56:51.695Z,14.60
2018-06-29T18:59:20.419Z,15.20
2018-06-29T19:01:49.047Z,14.73
2018-06-29T19:04:17.885Z,16.97
2018-06-29T19:06:46.594Z,16.37
2018-06-29T19:09:15.289Z,16.13
2018-06-29T19:11:43.946Z,18.03
2018-06-29T19:14:12.693Z,19.47
2018-06-29T19:16:41.384Z,16.60
2018-06-29T19:19:10.098Z,17.30
2018-06-29T19:21:38.824Z,16.10
2018-06-29T19:24:07.423Z,15.50
2018-06-29T19:26:36.112Z,16.00
2018-06-29T19:29:04.661Z,16.30
2018-06-29T19:31:33.333Z,16.53
2018-06-29T19:34:01.987Z,17.63
2018-06-29T19:36:30.637Z,17.30
2018-06-29T19:38:59.419Z,17.40
2018-06-29T19:41:28.004Z,18.73
2018-06-29T19:43:56.719Z,17.10
2018-06-29T19:46:25.363Z,17.60
2018-06-29T19:48:53.966Z,18.33
2018-06-29T19:51:22.794Z,17.00
2018-06-29T19:53:51.397Z,20.17
2018-06-29T19:56:19.982Z,27.27
2018-06-29T19:58:48.599Z,19.07
2018-06-29T20:01:17.359Z,17.43
2018-06-29T20:03:46.058Z,18.10
2018-06-29T20:06:14.783Z,18.30
2018-06-29T20:08:43.378Z,19.00
2018-06-29T20:11:12.378Z,17.50
2018-06-29T20:13:41.206Z,18.57
2018-06-29T20:16:09.832Z,19.37
2018-06-29T20:18:38.515Z,17.93
2018-06-29T20:21:07.238Z,18.30
2018-06-29T20:23:35.789Z,19.17
2018-06-29T20:26:04.372Z,22.53
2018-06-29T20:28:32.869Z,20.30
2018-06-29T20:31:04.885Z,18.20
2018-06-29T20:33:33.470Z,18.50
2018-06-29T20:36:02.009Z,19.07
2018-06-29T20:38:30.640Z,19.37
2018-06-29T20:40:59.117Z,19.77
2018-06-29T20:43:27.633Z,18.03
2018-06-29T20:45:56.146Z,16.27
2018-06-29T20:48:24.691Z,19.50
2018-06-29T20:50:53.218Z,16.77
2018-06-29T20:53:22.097Z,17.53
2018-06-29T20:55:50.768Z,18.13
2018-06-29T20:58:19.282Z,18.93
2018-06-29T21:00:47.853Z,18.10
2018-06-29T21:03:16.369Z,17.47
2018-06-29T21:05:44.913Z,17.17
2018-06-29T21:08:13.505Z,17.37
2018-06-29T21:10:42.092Z,18.47
2018-06-29T21:13:10.977Z,16.90
2018-06-29T21:15:39.556Z,16.53
2018-06-29T21:18:07.921Z,47.17
2018-06-29T21:20:36.480Z,60.23
2018-06-29T21:23:05.021Z,16.90
2018-06-29T21:25:33.677Z,17.57
2018-06-29T21:28:02.184Z,18.47
2018-06-29T21:31:59.902Z,17.10
2018-06-29T21:34:28.629Z,17.97
2018-06-29T21:36:57.190Z,17.83
2018-06-29T21:39:25.689Z,17.40
2018-06-29T21:41:54.198Z,18.93
2018-06-29T21:44:22.735Z,16.77
2018-06-29T21:46:51.269Z,16.00
2018-06-29T21:49:19.789Z,16.70
2018-06-29T21:51:48.297Z,17.07
2018-06-29T21:54:16.889Z,18.53
2018-06-29T21:56:45.409Z,16.77
2018-06-29T21:59:13.921Z,16.83
2018-06-29T22:01:42.453Z,16.40
2018-06-29T22:04:10.990Z,18.70
2018-06-29T22:06:39.554Z,16.50
2018-06-29T22:09:09.121Z,18.47
2018-06-29T22:11:37.797Z,18.27
2018-06-29T22:14:06.609Z,18.07
2018-06-29T22:16:35.157Z,57.30
2018-06-29T22:19:03.738Z,59.47
2018-06-29T22:21:32.286Z,63.87
2018-06-29T22:24:00.826Z,65.40
2018-06-29T22:26:29.365Z,61.33
2018-06-29T22:28:57.914Z,19.10
2018-06-29T22:31:26.675Z,19.73
2018-06-29T22:33:54.852Z,18.70
2018-06-29T22:36:23.404Z,58.13
2018-06-29T22:38:51.929Z,56.60
2018-06-29T22:41:20.445Z,72.33
2018-06-29T22:43:48.941Z,17.83
2018-06-29T22:46:17.494Z,17.43
2018-06-29T22:48:45.997Z,17.57
2018-06-29T22:51:14.513Z,17.87
2018-06-29T22:53:43.041Z,17.83
2018-06-29T22:56:11.545Z,17.37
2018-06-29T22:58:40.188Z,18.03
2018-06-29T23:01:08.729Z,18.90
2018-06-29T23:03:42.698Z,19.40
2018-06-29T23:06:11.221Z,18.90
2018-06-29T23:08:39.844Z,19.67
2018-06-29T23:11:08.362Z,19.90
2018-06-29T23:13:36.869Z,19.47
2018-06-29T23:16:05.489Z,18.50
2018-06-29T23:18:34.031Z,19.93
2018-06-29T23:21:02.622Z,20.00
2018-06-29T23:23:31.140Z,20.10
2018-06-29T23:25:59.685Z,18.80
2018-06-29T23:28:28.309Z,22.03
2018-06-29T23:30:56.980Z,18.70
2018-06-29T23:33:25.493Z,21.90
2018-06-29T23:35:54.019Z,20.90
2018-06-29T23:38:22.525Z,21.17
2018-06-29T23:40:51.036Z,21.47
2018-06-29T23:43:19.554Z,21.33
2018-06-29T23:45:48.060Z,21.10
2018-06-29T23:48:16.585Z,21.20
2018-06-29T23:50:45.109Z,22.10
2018-06-29T23:53:13.618Z,20.50
2018-06-29T23:55:42.135Z,20.27
2018-06-29T23:58:10.645Z,20.17
